createdAt,value
2022-08-26T00:00:54.295Z,60.66
2022-08-26T00:01:55.930Z,60.73
2022-08-26T00:02:57.566Z,61.05
2022-08-26T00:03:59.383Z,61.24
2022-08-26T00:05:01.030Z,61.13
2022-08-26T00:06:03.836Z,61.25
2022-08-26T00:07:05.392Z,61.47
2022-08-26T00:08:06.248Z,61.47
2022-08-26T00:09:08.164Z,61.58
2022-08-26T00:10:09.712Z,61.82
2022-08-26T00:11:11.438Z,62.01
2022-08-26T00:12:13.166Z,62.07
2022-08-26T00:13:14.907Z,62.33
2022-08-26T00:14:16.642Z,62.41
2022-08-26T00:15:18.362Z,62.49
2022-08-26T00:16:20.179Z,62.87
2022-08-26T00:17:21.868Z,62.71
2022-08-26T00:18:23.582Z,62.91
2022-08-26T00:19:25.306Z,63.07
2022-08-26T00:20:27.046Z,63.08
2022-08-26T00:21:28.771Z,63.19
2022-08-26T00:22:30.515Z,63.36
2022-08-26T00:23:32.238Z,63.4
2022-08-26T00:24:33.980Z,63.95
2022-08-26T00:25:35.691Z,64.06
2022-08-26T00:26:37.429Z,64.17
2022-08-26T00:27:39.179Z,64.07
2022-08-26T00:28:40.920Z,64.19
2022-08-26T00:29:42.654Z,64.12
2022-08-26T00:30:45.573Z,64.04
2022-08-26T00:31:46.292Z,64.16
2022-08-26T00:32:47.831Z,64.47
2022-08-26T00:33:49.795Z,64.43
2022-08-26T00:34:51.312Z,64.36
2022-08-26T00:35:53.030Z,64.67
2022-08-26T00:36:54.789Z,64.95
2022-08-26T00:37:56.508Z,64.71
2022-08-26T00:38:58.494Z,65.08
2022-08-26T00:40:00.782Z,65.01
2022-08-26T00:41:01.701Z,64.92
2022-08-26T00:42:04.910Z,65.1
2022-08-26T00:43:07.051Z,64.95
2022-08-26T00:44:06.911Z,64.99
2022-08-26T00:45:10.257Z,65.18
2022-08-26T00:46:10.445Z,65.24
2022-08-26T00:47:12.115Z,65.54
2022-08-26T00:48:13.853Z,65.42
2022-08-26T00:49:15.582Z,65.6
2022-08-26T00:50:17.325Z,65.73
2022-08-26T00:51:19.051Z,65.67
2022-08-26T00:52:20.777Z,65.7
2022-08-26T00:53:26.001Z,65.68
2022-08-26T00:54:24.247Z,65.88
2022-08-26T00:55:27.496Z,65.81
2022-08-26T00:56:27.717Z,66.13
2022-08-26T00:57:29.454Z,66.5
2022-08-26T00:58:31.189Z,66.57
2022-08-26T00:59:33.235Z,66.77
2022-08-26T01:00:34.646Z,66.8
2022-08-26T01:01:36.442Z,66.88
2022-08-26T01:02:38.168Z,66.83
2022-08-26T01:03:39.864Z,66.52
2022-08-26T01:04:41.596Z,66.87
2022-08-26T01:05:43.320Z,66.55
2022-08-26T01:06:45.055Z,66.71
2022-08-26T01:07:46.794Z,66.67
2022-08-26T01:08:48.525Z,67.06
2022-08-26T01:09:50.262Z,67.08
2022-08-26T01:10:52.002Z,67.26
2022-08-26T01:11:53.729Z,67.38
2022-08-26T01:12:55.455Z,67.4
2022-08-26T01:13:57.203Z,67.4
2022-08-26T01:14:58.944Z,67.46
2022-08-26T01:16:00.684Z,67.64
2022-08-26T01:17:02.393Z,67.9
2022-08-26T01:18:04.125Z,68.17
2022-08-26T01:19:05.863Z,68.2
2022-08-26T01:20:07.603Z,68.1
2022-08-26T01:21:09.332Z,67.88
2022-08-26T01:22:11.052Z,67.81
2022-08-26T01:23:13.007Z,67.78
2022-08-26T01:24:14.532Z,67.76
2022-08-26T01:25:16.265Z,67.63
2022-08-26T01:26:19.636Z,67.64
2022-08-26T01:27:19.773Z,67.93
2022-08-26T01:28:21.505Z,68.19
2022-08-26T01:29:23.201Z,68.13
2022-08-26T01:30:25.003Z,68.21
2022-08-26T01:31:26.727Z,68.31
2022-08-26T01:32:28.432Z,68.17
2022-08-26T01:33:30.172Z,68.39
2022-08-26T01:34:31.887Z,68.35
2022-08-26T01:35:33.666Z,68.6
2022-08-26T01:36:35.327Z,68.57
2022-08-26T01:37:37.049Z,68.64
2022-08-26T01:38:38.795Z,68.65
2022-08-26T01:39:40.544Z,68.95
2022-08-26T01:40:42.257Z,69.38
2022-08-26T01:41:44.207Z,69.24
2022-08-26T01:42:45.728Z,69.14
2022-08-26T01:43:47.471Z,69.36
2022-08-26T01:44:49.319Z,69.51
2022-08-26T01:45:50.977Z,69.52
2022-08-26T01:46:52.653Z,69.58
2022-08-26T01:47:57.021Z,69.51
2022-08-26T01:48:56.131Z,69.41
2022-08-26T01:49:57.868Z,69.37
2022-08-26T01:50:59.685Z,69.07
2022-08-26T01:52:01.324Z,69.02
2022-08-26T01:53:03.061Z,68.89
2022-08-26T01:54:04.802Z,68.88
2022-08-26T01:55:06.548Z,69.23
2022-08-26T01:56:08.274Z,69.4
2022-08-26T01:57:09.992Z,69.6
2022-08-26T01:58:11.716Z,69.77
2022-08-26T01:59:13.763Z,70.05
2022-08-26T02:00:16.245Z,70.24
2022-08-26T02:01:17.011Z,70.47
2022-08-26T02:02:18.683Z,70.86
2022-08-26T02:03:20.429Z,71.05
2022-08-26T02:04:22.218Z,71.36
2022-08-26T02:05:23.896Z,71.55
2022-08-26T02:06:25.643Z,71.83
2022-08-26T02:07:27.343Z,71.55
2022-08-26T02:08:29.075Z,72.02
2022-08-26T02:09:30.897Z,72.19
2022-08-26T02:10:32.547Z,71.99
2022-08-26T02:11:34.304Z,72.08
2022-08-26T02:12:36.010Z,72.5
2022-08-26T02:13:37.734Z,72.4
2022-08-26T02:14:43.526Z,72.4
2022-08-26T02:15:41.224Z,72.47
2022-08-26T02:16:43.040Z,72.5
2022-08-26T02:17:44.668Z,72.56
2022-08-26T02:18:46.905Z,72.34
2022-08-26T02:19:48.140Z,72.01
2022-08-26T02:20:51.515Z,72.06
2022-08-26T02:21:51.965Z,72.03
2022-08-26T02:22:53.349Z,71.84
2022-08-26T02:23:56.313Z,71.99
2022-08-26T02:24:56.797Z,71.91
2022-08-26T02:25:58.674Z,71.82
2022-08-26T02:27:00.271Z,71.68
2022-08-26T02:28:02.122Z,71.54
2022-08-26T02:29:03.729Z,71.6
2022-08-26T02:30:05.650Z,71.99
2022-08-26T02:31:07.217Z,71.91
2022-08-26T02:32:09.091Z,72.01
2022-08-26T02:33:10.712Z,72.01
2022-08-26T02:34:12.410Z,72.72
2022-08-26T02:35:14.174Z,72.22
2022-08-26T02:36:16.078Z,72.08
2022-08-26T02:37:17.804Z,72.12
2022-08-26T02:38:19.467Z,72.14
2022-08-26T02:39:22.349Z,72.43
2022-08-26T02:40:22.893Z,72.41
2022-08-26T02:41:24.544Z,72.5
2022-08-26T02:42:26.284Z,72.66
2022-08-26T02:43:31.762Z,72.68
2022-08-26T02:44:29.733Z,73.05
2022-08-26T02:45:31.479Z,72.95
2022-08-26T02:46:33.361Z,73.25
2022-08-26T02:47:34.931Z,73.09
2022-08-26T02:48:36.671Z,73.04
2022-08-26T02:49:38.421Z,73.06
2022-08-26T02:50:40.161Z,73.49
2022-08-26T02:51:43.119Z,73.62
2022-08-26T02:52:43.625Z,73.99
2022-08-26T02:53:45.345Z,73.7
2022-08-26T02:54:47.065Z,73.9
2022-08-26T02:55:48.826Z,73.93
2022-08-26T02:56:50.539Z,73.72
2022-08-26T02:57:52.280Z,73.53
2022-08-26T02:58:54.007Z,73.37
2022-08-26T02:59:55.748Z,73.48
2022-08-26T03:00:57.554Z,73.78
2022-08-26T03:01:59.261Z,73.89
2022-08-26T03:03:00.976Z,74.6
2022-08-26T03:04:02.680Z,74.82
2022-08-26T03:05:04.415Z,74.61
2022-08-26T03:06:06.152Z,74.63
2022-08-26T03:07:07.871Z,74.85
2022-08-26T03:08:09.605Z,74.9
2022-08-26T03:09:14.007Z,74.99
2022-08-26T03:10:13.298Z,75.29
2022-08-26T03:11:14.821Z,75.24
2022-08-26T03:12:16.611Z,75.39
2022-08-26T03:13:18.274Z,75.66
2022-08-26T03:14:20.070Z,76.12
2022-08-26T03:15:21.753Z,76.18
2022-08-26T03:16:23.624Z,76.27
2022-08-26T03:17:25.213Z,76.35
2022-08-26T03:18:26.971Z,76.44
2022-08-26T03:19:28.699Z,76.69
2022-08-26T03:20:30.503Z,76.73
2022-08-26T03:21:32.140Z,76.83
2022-08-26T03:22:33.894Z,77.15
2022-08-26T03:23:35.617Z,77.24
2022-08-26T03:24:37.351Z,77.3
2022-08-26T03:25:39.081Z,77.24
2022-08-26T03:26:40.804Z,77.22
2022-08-26T03:27:43.144Z,77.4
2022-08-26T03:28:44.336Z,77.58
2022-08-26T03:29:50.394Z,77.88
2022-08-26T03:30:47.756Z,77.69
2022-08-26T03:31:49.511Z,77.9
2022-08-26T03:32:51.228Z,77.88
2022-08-26T03:33:55.598Z,77.94
2022-08-26T03:34:54.696Z,78.05
2022-08-26T03:35:56.406Z,78.2
2022-08-26T03:36:58.152Z,78.36
2022-08-26T03:37:59.875Z,78.45
2022-08-26T03:39:01.632Z,79.15
2022-08-26T03:40:03.395Z,79
2022-08-26T03:41:05.082Z,78.92
2022-08-26T03:42:06.823Z,79.25
2022-08-26T03:43:10.008Z,79.37
2022-08-26T03:44:10.281Z,79.13
2022-08-26T03:45:12.024Z,79.21
2022-08-26T03:46:13.815Z,79.2
2022-08-26T03:47:15.487Z,78.98
2022-08-26T03:48:17.206Z,79.05
2022-08-26T03:49:19.006Z,79.38
2022-08-26T03:50:22.893Z,79.29
2022-08-26T03:51:22.411Z,79.17
2022-08-26T03:52:24.158Z,79.36
2022-08-26T03:53:25.885Z,79.21
2022-08-26T03:54:27.622Z,78.92
2022-08-26T03:55:29.396Z,78.92
2022-08-26T03:56:31.079Z,78.98
2022-08-26T03:57:32.820Z,79.03
2022-08-26T03:58:34.557Z,79.07
2022-08-26T03:59:36.289Z,79.15
2022-08-26T04:00:38.022Z,79.04
2022-08-26T04:01:39.830Z,78.78
2022-08-26T04:02:41.566Z,78.83
2022-08-26T04:03:43.223Z,78.79
2022-08-26T04:04:44.965Z,79.6
2022-08-26T04:05:46.699Z,79.47
2022-08-26T04:06:48.426Z,79.44
2022-08-26T04:07:50.434Z,79.44
2022-08-26T04:08:51.886Z,79.28
2022-08-26T04:09:53.652Z,79.19
2022-08-26T04:10:55.352Z,79.21
2022-08-26T04:11:57.097Z,79.4
2022-08-26T04:12:59.281Z,79.58
2022-08-26T04:14:00.568Z,79.43
2022-08-26T04:15:02.280Z,79.28
2022-08-26T04:16:04.099Z,79.17
2022-08-26T04:17:05.763Z,79.01
2022-08-26T04:18:07.505Z,78.78
2022-08-26T04:19:09.227Z,78.71
2022-08-26T04:20:10.968Z,78.7
2022-08-26T04:21:12.690Z,78.61
2022-08-26T04:22:14.427Z,78.49
2022-08-26T04:23:16.160Z,78.37
2022-08-26T04:24:17.954Z,78.41
2022-08-26T04:25:20.486Z,78.38
2022-08-26T04:26:21.361Z,78.3
2022-08-26T04:27:23.084Z,78.29
2022-08-26T04:28:24.830Z,78.29
2022-08-26T04:29:26.555Z,78.12
2022-08-26T04:30:28.289Z,78.07
2022-08-26T04:31:30.936Z,78
2022-08-26T04:32:31.761Z,77.86
2022-08-26T04:33:33.496Z,77.97
2022-08-26T04:34:35.216Z,78.05
2022-08-26T04:35:36.962Z,77.92
2022-08-26T04:36:38.692Z,77.83
2022-08-26T04:37:43.042Z,77.91
2022-08-26T04:38:42.160Z,77.81
2022-08-26T04:39:43.884Z,77.66
2022-08-26T04:40:46.662Z,77.78
2022-08-26T04:41:47.360Z,77.76
2022-08-26T04:42:50.407Z,77.71
2022-08-26T04:43:50.829Z,77.76
2022-08-26T04:44:52.552Z,77.69
2022-08-26T04:45:54.291Z,77.82
2022-08-26T04:46:56.031Z,77.82
2022-08-26T04:47:57.749Z,77.87
2022-08-26T04:48:59.476Z,77.96
2022-08-26T04:50:01.925Z,77.78
2022-08-26T04:51:07.958Z,78.09
2022-08-26T04:52:04.842Z,78.16
2022-08-26T04:53:07.196Z,78.13
2022-08-26T04:54:08.140Z,78.51
2022-08-26T04:55:09.882Z,78.53
2022-08-26T04:56:11.622Z,78.62
2022-08-26T04:57:13.348Z,78.71
2022-08-26T04:58:15.077Z,78.77
2022-08-26T04:59:18.011Z,78.82
2022-08-26T05:00:18.549Z,78.81
2022-08-26T05:01:20.369Z,78.81
2022-08-26T05:02:22.021Z,78.66
2022-08-26T05:03:23.776Z,78.72
2022-08-26T05:04:25.560Z,78.57
2022-08-26T05:05:27.220Z,78.7
2022-08-26T05:06:28.988Z,78.8
2022-08-26T05:07:30.701Z,78.86
2022-08-26T05:08:32.389Z,78.85
2022-08-26T05:09:34.143Z,78.49
2022-08-26T05:10:35.867Z,78.29
2022-08-26T05:11:37.615Z,78.23
2022-08-26T05:12:39.354Z,78.15
2022-08-26T05:13:41.071Z,78.06
2022-08-26T05:14:42.894Z,78.17
2022-08-26T05:15:44.609Z,78.23
2022-08-26T05:16:47.757Z,78.28
2022-08-26T05:17:48.052Z,78.27
2022-08-26T05:18:49.735Z,78.33
2022-08-26T05:19:51.513Z,78.28
2022-08-26T05:20:53.903Z,78.29
2022-08-26T05:21:54.991Z,78.46
2022-08-26T05:22:56.672Z,78.54
2022-08-26T05:23:58.447Z,78.58
2022-08-26T05:25:00.176Z,78.69
2022-08-26T05:26:02.034Z,79.04
2022-08-26T05:27:03.850Z,79.24
2022-08-26T05:28:05.387Z,79.09
2022-08-26T05:29:07.108Z,79.04
2022-08-26T05:30:08.886Z,79.03
2022-08-26T05:31:10.629Z,79.01
2022-08-26T05:32:12.279Z,79
2022-08-26T05:33:14.019Z,78.95
2022-08-26T05:34:15.726Z,78.92
2022-08-26T05:35:17.473Z,78.94
2022-08-26T05:36:19.233Z,78.76
2022-08-26T05:37:20.952Z,78.85
2022-08-26T05:38:22.682Z,78.73
2022-08-26T05:39:24.403Z,78.81
2022-08-26T05:40:26.241Z,78.65
2022-08-26T05:41:27.866Z,78.73
2022-08-26T05:42:29.618Z,78.63
2022-08-26T05:43:31.343Z,78.67
2022-08-26T05:44:33.229Z,78.71
2022-08-26T05:45:34.809Z,78.56
2022-08-26T05:46:36.762Z,78.65
2022-08-26T05:47:38.277Z,78.79
2022-08-26T05:48:40.024Z,78.78
2022-08-26T05:49:41.830Z,78.85
2022-08-26T05:50:43.484Z,78.97
2022-08-26T05:51:45.278Z,78.95
2022-08-26T05:52:46.954Z,79.04
2022-08-26T05:53:54.800Z,79.06
2022-08-26T05:54:50.412Z,79.17
2022-08-26T05:55:52.140Z,79.13
2022-08-26T05:56:53.868Z,79.12
2022-08-26T05:57:55.614Z,79.16
2022-08-26T05:58:58.375Z,79.19
2022-08-26T05:59:59.146Z,79.38
2022-08-26T06:01:00.824Z,79.59
2022-08-26T06:02:02.578Z,79.44
2022-08-26T06:03:04.377Z,79.51
2022-08-26T06:04:06.007Z,79.6
2022-08-26T06:05:07.756Z,79.8
2022-08-26T06:06:09.660Z,79.59
2022-08-26T06:07:11.935Z,79.42
2022-08-26T06:08:12.945Z,79.43
2022-08-26T06:09:14.681Z,79.51
2022-08-26T06:10:31.429Z,79.78
2022-08-26T06:11:18.689Z,80.06
2022-08-26T06:12:19.883Z,80.37
2022-08-26T06:13:21.627Z,79.98
2022-08-26T06:14:23.554Z,80.22
2022-08-26T06:15:25.090Z,80.45
2022-08-26T06:16:26.948Z,81.43
2022-08-26T06:17:28.542Z,80.77
2022-08-26T06:18:30.282Z,80.64
2022-08-26T06:19:32.950Z,80.7
2022-08-26T06:20:33.791Z,80.67
2022-08-26T06:21:35.532Z,80.66
2022-08-26T06:22:37.254Z,80.66
2022-08-26T06:23:39.270Z,80.64
2022-08-26T06:24:40.766Z,80.14
2022-08-26T06:25:11.595Z,80.06
2022-08-26T06:25:42.462Z,79.98
2022-08-26T06:26:44.187Z,80.07
2022-08-26T06:27:45.915Z,80.04
2022-08-26T06:28:06.457Z,80.09
2022-08-26T06:29:08.223Z,79.97
2022-08-26T06:30:09.923Z,80
2022-08-26T06:31:11.791Z,80.59
2022-08-26T06:32:13.400Z,80.4
2022-08-26T06:33:15.135Z,80.12
2022-08-26T06:34:16.866Z,79.76
2022-08-26T06:35:18.602Z,79.31
2022-08-26T06:36:20.324Z,78.59
2022-08-26T06:37:23.087Z,78.5
2022-08-26T06:38:23.799Z,77.79
2022-08-26T06:39:25.554Z,77.41
2022-08-26T06:40:27.370Z,77.35
2022-08-26T06:41:28.996Z,77.16
2022-08-26T06:42:30.795Z,76.83
2022-08-26T06:43:32.460Z,76.43
2022-08-26T06:44:34.202Z,75.37
2022-08-26T06:45:35.930Z,75.3
2022-08-26T06:46:37.786Z,75.31
2022-08-26T06:47:39.408Z,75.21
2022-08-26T06:48:41.155Z,74.94
2022-08-26T06:49:44.316Z,73.58
2022-08-26T06:50:44.608Z,74.21
2022-08-26T06:51:46.324Z,74.05
2022-08-26T06:52:48.070Z,72.53
2022-08-26T06:53:49.815Z,72.52
2022-08-26T06:54:51.530Z,72.71
2022-08-26T06:55:53.266Z,72.18
2022-08-26T06:56:54.991Z,71.97
2022-08-26T06:57:56.722Z,71.41
2022-08-26T06:58:58.470Z,71.18
2022-08-26T07:00:00.211Z,71.76
2022-08-26T07:01:11.483Z,70.77
2022-08-26T07:02:03.855Z,71.5
2022-08-26T07:03:05.480Z,71.75
2022-08-26T07:04:10.429Z,70.46
2022-08-26T07:05:08.862Z,70.71
2022-08-26T07:06:10.614Z,70.09
2022-08-26T07:07:12.324Z,70.19
2022-08-26T07:08:14.118Z,70.73
2022-08-26T07:09:15.802Z,69.31
2022-08-26T07:10:17.540Z,69.5
2022-08-26T07:11:19.262Z,68.67
2022-08-26T07:12:21.137Z,69.59
2022-08-26T07:13:30.655Z,68.87
2022-08-26T07:14:24.472Z,67.35
2022-08-26T07:15:31.053Z,68.5
2022-08-26T07:16:27.930Z,66.86
2022-08-26T07:17:29.696Z,67.32
2022-08-26T07:18:31.389Z,66.6
2022-08-26T07:19:33.153Z,66.66
2022-08-26T07:20:34.876Z,66.39
2022-08-26T07:21:36.617Z,66.61
2022-08-26T07:22:38.381Z,65.86
2022-08-26T07:23:40.355Z,64.8
2022-08-26T07:24:42.497Z,64.46
2022-08-26T07:25:43.567Z,64.01
2022-08-26T07:26:45.263Z,63.9
2022-08-26T07:27:47.075Z,63.14
2022-08-26T07:28:48.737Z,63.5
2022-08-26T07:29:50.466Z,62.87
2022-08-26T07:30:52.508Z,62.7
2022-08-26T07:31:53.942Z,62.44
2022-08-26T07:32:55.659Z,63.14
2022-08-26T07:33:11.208Z,62.52
2022-08-26T07:34:12.868Z,62.72
2022-08-26T07:35:14.571Z,61.99
2022-08-26T07:36:16.302Z,63.13
2022-08-26T07:37:18.043Z,61.91
2022-08-26T07:38:19.802Z,61.22
2022-08-26T07:39:21.563Z,61.97
2022-08-26T07:40:23.315Z,61.67
2022-08-26T07:41:25.065Z,60.58
2022-08-26T07:42:26.751Z,61.19
2022-08-26T07:43:28.431Z,60.71
2022-08-26T07:44:30.295Z,60.74
2022-08-26T07:45:31.902Z,60.36
2022-08-26T07:46:33.626Z,60.47
2022-08-26T07:47:35.363Z,59.3
2022-08-26T07:48:37.085Z,59.92
2022-08-26T07:49:38.899Z,60.09
2022-08-26T07:50:50.166Z,58.87
2022-08-26T07:51:42.298Z,59.59
2022-08-26T07:52:44.032Z,59.73
2022-08-26T07:53:47.919Z,59.73
2022-08-26T07:54:47.495Z,59.27
2022-08-26T07:55:49.464Z,59.81
2022-08-26T07:56:51.024Z,58.64
2022-08-26T07:57:52.696Z,59.24
2022-08-26T07:58:54.435Z,58.79
2022-08-26T07:59:56.161Z,57.89
2022-08-26T08:00:57.914Z,58.61
2022-08-26T08:01:59.701Z,59.03
2022-08-26T08:03:01.368Z,58.38
2022-08-26T08:04:03.092Z,58.72
2022-08-26T08:05:04.905Z,58.27
2022-08-26T08:06:06.570Z,56.92
2022-08-26T08:07:11.556Z,57.4
2022-08-26T08:08:27.890Z,56.5
2022-08-26T08:09:11.771Z,56.05
2022-08-26T08:10:13.544Z,55.48
2022-08-26T08:11:15.241Z,55.8
2022-08-26T08:12:16.961Z,55.72
2022-08-26T08:13:18.735Z,55.64
2022-08-26T08:14:22.144Z,54.99
2022-08-26T08:15:22.168Z,55.89
2022-08-26T08:16:23.934Z,55.38
2022-08-26T08:17:25.624Z,55.44
2022-08-26T08:18:27.351Z,54.66
2022-08-26T08:19:36.993Z,55.05
2022-08-26T08:20:30.856Z,54.12
2022-08-26T08:21:32.563Z,54.18
2022-08-26T08:22:34.307Z,54.78
2022-08-26T08:23:36.020Z,54.62
2022-08-26T08:24:37.759Z,55.45
2022-08-26T08:25:39.486Z,55.38
2022-08-26T08:26:41.228Z,54.79
2022-08-26T08:27:42.980Z,54.82
2022-08-26T08:28:44.709Z,54.48
2022-08-26T08:29:46.490Z,54.36
2022-08-26T08:30:48.225Z,54.15
2022-08-26T08:31:56.695Z,53.72
2022-08-26T08:32:51.700Z,54.57
2022-08-26T08:33:53.352Z,54.34
2022-08-26T08:34:55.080Z,53.17
2022-08-26T08:35:56.828Z,53.15
2022-08-26T08:36:58.566Z,53.4
2022-08-26T08:38:00.343Z,53.79
2022-08-26T08:39:02.017Z,53.16
2022-08-26T08:40:03.830Z,53.14
2022-08-26T08:41:05.669Z,53.37
2022-08-26T08:42:07.211Z,52.77
2022-08-26T08:43:09.144Z,52.67
2022-08-26T08:44:10.681Z,52.57
2022-08-26T08:45:12.414Z,52.81
2022-08-26T08:46:14.290Z,52.67
2022-08-26T08:47:15.896Z,52.92
2022-08-26T08:48:17.626Z,51.87
2022-08-26T08:49:19.352Z,52.1
2022-08-26T08:50:21.089Z,51.8
2022-08-26T08:51:22.817Z,51.94
2022-08-26T08:52:24.548Z,52.16
2022-08-26T08:53:26.282Z,50.16
2022-08-26T08:54:28.027Z,50.72
2022-08-26T08:55:29.760Z,50.89
2022-08-26T08:56:31.495Z,50.52
2022-08-26T08:57:33.231Z,50.79
2022-08-26T08:58:34.977Z,50.76
2022-08-26T08:59:38.402Z,50.68
2022-08-26T09:00:39.858Z,50.35
2022-08-26T09:01:40.256Z,51.06
2022-08-26T09:02:41.976Z,50.48
2022-08-26T09:03:43.665Z,48.75
2022-08-26T09:04:45.458Z,48.92
2022-08-26T09:05:48.953Z,49.36
2022-08-26T09:06:48.904Z,49.66
2022-08-26T09:07:50.571Z,48.68
2022-08-26T09:08:52.302Z,49.33
2022-08-26T09:09:54.025Z,49.62
2022-08-26T09:10:55.769Z,48.96
2022-08-26T09:11:57.499Z,48.23
2022-08-26T09:12:59.223Z,48.46
2022-08-26T09:14:00.989Z,48.09
2022-08-26T09:15:02.706Z,48.94
2022-08-26T09:16:04.439Z,48.21
2022-08-26T09:17:06.228Z,48.9
2022-08-26T09:18:08.144Z,49.04
2022-08-26T09:19:09.621Z,48.19
2022-08-26T09:20:11.341Z,48.15
2022-08-26T09:21:13.114Z,48.63
2022-08-26T09:22:15.084Z,48.81
2022-08-26T09:23:16.557Z,48.62
2022-08-26T09:24:18.289Z,47.65
2022-08-26T09:25:20.024Z,48.19
2022-08-26T09:26:24.729Z,48.76
2022-08-26T09:27:23.487Z,49.05
2022-08-26T09:28:25.246Z,49.07
2022-08-26T09:29:27.018Z,48.87
2022-08-26T09:30:28.789Z,49.39
2022-08-26T09:31:30.559Z,49.5
2022-08-26T09:32:32.157Z,49.38
2022-08-26T09:33:33.903Z,49.55
2022-08-26T09:34:35.627Z,49.12
2022-08-26T09:35:37.364Z,50.08
2022-08-26T09:36:41.421Z,48.96
2022-08-26T09:37:40.885Z,48.86
2022-08-26T09:38:42.570Z,48.29
2022-08-26T09:39:44.286Z,48.78
2022-08-26T09:40:46.041Z,48.7
2022-08-26T09:41:47.761Z,48.04
2022-08-26T09:42:49.545Z,47.84
2022-08-26T09:43:51.222Z,48.14
2022-08-26T09:44:52.966Z,48.54
2022-08-26T09:45:58.507Z,48.37
2022-08-26T09:46:56.429Z,48.59
2022-08-26T09:48:01.382Z,48.58
2022-08-26T09:48:59.904Z,48.07
2022-08-26T09:50:01.622Z,48.63
2022-08-26T09:51:13.368Z,47.57
2022-08-26T09:52:05.079Z,47.59
2022-08-26T09:53:09.701Z,47.38
2022-08-26T09:54:08.564Z,47.48
2022-08-26T09:55:10.292Z,47.66
2022-08-26T09:56:12.032Z,48.19
2022-08-26T09:57:13.757Z,47.17
2022-08-26T09:58:15.486Z,47.3
2022-08-26T09:59:18.887Z,47.84
2022-08-26T10:00:18.986Z,47.98
2022-08-26T10:01:20.769Z,47.38
2022-08-26T10:02:22.429Z,47.38
2022-08-26T10:03:24.164Z,47.54
2022-08-26T10:04:26.715Z,48.08
2022-08-26T10:05:27.623Z,46.95
2022-08-26T10:06:29.381Z,47.22
2022-08-26T10:07:31.086Z,47.19
2022-08-26T10:08:32.836Z,47.37
2022-08-26T10:09:34.542Z,47.31
2022-08-26T10:10:36.296Z,47.67
2022-08-26T10:11:38.022Z,47.84
2022-08-26T10:12:39.761Z,47.69
2022-08-26T10:13:41.477Z,48.12
2022-08-26T10:15:48.749Z,46.81
2022-08-26T10:16:46.781Z,46.82
2022-08-26T10:17:48.427Z,46.32
2022-08-26T10:18:50.169Z,46.63
2022-08-26T10:19:57.125Z,46.6
2022-08-26T10:20:53.633Z,46.54
2022-08-26T10:21:55.359Z,46.46
2022-08-26T10:22:57.253Z,46.23
2022-08-26T10:23:58.833Z,46.5
2022-08-26T10:25:00.589Z,46.39
2022-08-26T10:26:12.289Z,45.22
2022-08-26T10:27:04.033Z,44.92
2022-08-26T10:28:05.980Z,45.07
2022-08-26T10:28:47.005Z,44.03
2022-08-26T10:29:48.673Z,44.55
2022-08-26T10:30:50.438Z,44.11
2022-08-26T10:31:52.199Z,44.28
2022-08-26T10:32:53.895Z,44.46
2022-08-26T10:33:58.649Z,45.26
2022-08-26T10:34:57.344Z,44.97
2022-08-26T10:35:59.093Z,44.47
2022-08-26T10:37:14.327Z,44.41
2022-08-26T10:38:02.666Z,43.9
2022-08-26T10:39:04.303Z,43.35
2022-08-26T10:40:06.111Z,43.28
2022-08-26T10:41:09.694Z,43.89
2022-08-26T10:42:09.466Z,43.01
2022-08-26T10:43:11.635Z,43.88
2022-08-26T10:44:12.951Z,44.57
2022-08-26T10:45:15.328Z,42.56
2022-08-26T10:46:16.517Z,43.67
2022-08-26T10:47:18.158Z,43.97
2022-08-26T10:48:19.879Z,43.03
2022-08-26T10:49:21.637Z,43.03
2022-08-26T10:50:23.342Z,42.77
2022-08-26T10:51:25.095Z,42.49
2022-08-26T10:52:29.396Z,41.55
2022-08-26T10:53:28.544Z,42.46
2022-08-26T10:54:30.276Z,42.72
2022-08-26T10:55:34.865Z,43.55
2022-08-26T10:56:33.771Z,43.05
2022-08-26T10:57:35.539Z,42.72
2022-08-26T10:58:37.210Z,43.2
2022-08-26T10:59:38.943Z,42.21
2022-08-26T11:00:40.783Z,42.65
2022-08-26T11:01:42.513Z,41.45
2022-08-26T11:02:46.950Z,42.02
2022-08-26T11:03:45.936Z,42.32
2022-08-26T11:04:48.469Z,42.39
2022-08-26T11:05:49.340Z,42.57
2022-08-26T11:06:51.267Z,43.25
2022-08-26T11:07:52.834Z,43.67
2022-08-26T11:08:54.551Z,42.25
2022-08-26T11:09:56.267Z,42.79
2022-08-26T11:10:59.005Z,42.95
2022-08-26T11:12:02.849Z,42.36
2022-08-26T11:13:01.627Z,42.77
2022-08-26T11:14:03.467Z,43.4
2022-08-26T11:15:05.212Z,42.75
2022-08-26T11:16:06.715Z,42.05
2022-08-26T11:17:08.422Z,42.48
2022-08-26T11:18:10.433Z,41.29
2022-08-26T11:19:11.885Z,41.82
2022-08-26T11:20:14.702Z,42.35
2022-08-26T11:21:15.338Z,42.06
2022-08-26T11:22:17.078Z,41.49
2022-08-26T11:23:18.808Z,41.89
2022-08-26T11:24:20.550Z,41.71
2022-08-26T11:25:26.465Z,41.93
2022-08-26T11:26:43.161Z,41.62
2022-08-26T11:27:26.067Z,41.69
2022-08-26T11:28:27.524Z,41.84
2022-08-26T11:29:29.215Z,41.94
2022-08-26T11:30:30.956Z,42.03
2022-08-26T11:31:32.815Z,42.29
2022-08-26T11:32:34.450Z,41.78
2022-08-26T11:33:36.147Z,41.77
2022-08-26T11:34:37.883Z,41.54
2022-08-26T11:35:39.615Z,41.62
2022-08-26T11:36:41.342Z,41.89
2022-08-26T11:37:43.076Z,42.01
2022-08-26T11:38:44.814Z,41.42
2022-08-26T11:39:49.374Z,41.73
2022-08-26T11:40:48.289Z,41.64
2022-08-26T11:41:52.704Z,41.63
2022-08-26T11:42:51.751Z,42.14
2022-08-26T11:43:53.505Z,42.23
2022-08-26T11:44:57.004Z,42.43
2022-08-26T11:45:57.046Z,42.39
2022-08-26T11:46:58.797Z,42.9
2022-08-26T11:48:00.470Z,42.92
2022-08-26T11:49:02.144Z,42.93
2022-08-26T11:50:03.879Z,43.38
2022-08-26T11:51:05.623Z,42.98
2022-08-26T11:52:07.343Z,43.33
2022-08-26T11:53:09.081Z,43.59
2022-08-26T11:54:10.825Z,43.5
2022-08-26T11:55:12.559Z,44.08
2022-08-26T11:56:14.283Z,44.76
2022-08-26T11:57:16.022Z,44.47
2022-08-26T11:58:17.752Z,44.6
2022-08-26T11:59:19.504Z,44.7
2022-08-26T12:00:22.681Z,44.22
2022-08-26T12:01:22.951Z,44.5
2022-08-26T12:02:24.700Z,44.18
2022-08-26T12:03:26.483Z,44
2022-08-26T12:04:28.273Z,44.51
2022-08-26T12:05:31.002Z,44.32
2022-08-26T12:06:31.699Z,43.84
2022-08-26T12:07:33.366Z,43.73
2022-08-26T12:08:35.112Z,43.39
2022-08-26T12:09:36.820Z,42.89
2022-08-26T12:10:38.552Z,42.78
2022-08-26T12:11:40.280Z,42.15
2022-08-26T12:12:42.025Z,42.23
2022-08-26T12:13:43.743Z,42.21
2022-08-26T12:14:45.476Z,42.18
2022-08-26T12:15:47.236Z,41.92
2022-08-26T12:16:49.001Z,42.2
2022-08-26T12:17:54.405Z,42.51
2022-08-26T12:18:52.413Z,42.43
2022-08-26T12:19:54.162Z,42.42
2022-08-26T12:20:55.887Z,42.64
2022-08-26T12:21:57.638Z,42.96
2022-08-26T12:22:59.346Z,43.13
2022-08-26T12:24:01.098Z,43.67
2022-08-26T12:25:02.898Z,44.14
2022-08-26T12:26:04.584Z,44.53
2022-08-26T12:27:06.290Z,44.46
2022-08-26T12:28:08.159Z,43.94
2022-08-26T12:29:19.894Z,44.14
2022-08-26T12:30:12.366Z,43.4
2022-08-26T12:31:13.273Z,43.51
2022-08-26T12:32:14.973Z,43.96
2022-08-26T12:33:22.152Z,44.99
2022-08-26T12:34:18.619Z,46.8
2022-08-26T12:35:20.172Z,50.04
2022-08-26T12:36:21.916Z,49.14
2022-08-26T12:37:23.614Z,50.24
2022-08-26T12:38:25.459Z,53.75
2022-08-26T12:39:27.093Z,55.35
2022-08-26T12:40:29.013Z,56.17
2022-08-26T12:41:30.721Z,56.81
2022-08-26T12:42:32.286Z,58.52
2022-08-26T12:43:34.142Z,59.25
2022-08-26T12:44:35.834Z,60.93
2022-08-26T12:45:37.596Z,62.35
2022-08-26T12:46:39.223Z,62.41
2022-08-26T12:47:43.399Z,62.4
2022-08-26T12:48:42.700Z,63.9
2022-08-26T12:49:44.413Z,63.81
2022-08-26T12:50:46.159Z,65.05
2022-08-26T12:51:47.882Z,64.18
2022-08-26T12:52:49.621Z,65.68
2022-08-26T12:53:51.377Z,68.07
2022-08-26T12:54:56.677Z,67.46
2022-08-26T12:55:54.862Z,66.61
2022-08-26T12:56:56.545Z,66.47
2022-08-26T12:57:58.286Z,68.41
2022-08-26T12:59:00.212Z,70.19
2022-08-26T13:00:01.774Z,72.01
2022-08-26T13:01:04.760Z,74.78
2022-08-26T13:02:05.338Z,72.71
2022-08-26T13:03:07.284Z,71.86
2022-08-26T13:04:08.694Z,74.12
2022-08-26T13:05:10.413Z,76.02
2022-08-26T13:06:15.565Z,79.15
2022-08-26T13:07:13.890Z,77.38
2022-08-26T13:08:15.621Z,82.17
2022-08-26T13:09:17.357Z,85.31
2022-08-26T13:10:19.086Z,86.6
2022-08-26T13:11:20.841Z,85.25
2022-08-26T13:12:22.596Z,85.41
2022-08-26T13:13:24.288Z,87.07
2022-08-26T13:14:26.025Z,90.16
2022-08-26T13:15:27.738Z,88.74
2022-08-26T13:16:29.551Z,90.47